createdAt,value
2023-04-29T00:00:07.159Z,99.90
2023-04-29T00:02:33.993Z,99.90
2023-04-29T00:05:01.253Z,99.90
2023-04-29T00:07:28.078Z,99.90
2023-04-29T00:09:54.677Z,99.90
2023-04-29T00:12:21.201Z,99.90
2023-04-29T00:14:47.808Z,99.90
2023-04-29T00:17:16.086Z,99.90
2023-04-29T00:19:43.309Z,99.90
2023-04-29T00:22:09.822Z,99.90
2023-04-29T00:24:36.397Z,99.90
2023-04-29T00:27:03.099Z,99.90
2023-04-29T00:29:29.660Z,99.90
2023-04-29T00:31:56.177Z,99.90
2023-04-29T00:34:22.884Z,99.90
2023-04-29T00:36:49.439Z,99.90
2023-04-29T00:39:16.187Z,99.90
2023-04-29T00:41:42.748Z,99.90
2023-04-29T00:44:09.907Z,99.90
2023-04-29T00:46:36.749Z,99.90
2023-04-29T00:49:03.974Z,99.90
2023-04-29T00:51:30.767Z,99.90
2023-04-29T00:53:57.463Z,99.90
2023-04-29T00:56:24.527Z,99.90
2023-04-29T00:58:52.349Z,99.90
2023-04-29T01:01:22.026Z,99.90
2023-04-29T01:03:49.219Z,99.90
2023-04-29T01:06:24.942Z,99.90
2023-04-29T01:09:28.099Z,99.90
2023-04-29T01:12:16.676Z,99.90
2023-04-29T01:14:53.114Z,99.90
2023-04-29T01:17:26.724Z,99.90
2023-04-29T01:19:56.803Z,99.90
2023-04-29T01:22:23.602Z,99.90
2023-04-29T01:24:50.277Z,99.90
2023-04-29T01:27:31.730Z,99.90
2023-04-29T01:30:24.916Z,99.90
2023-04-29T01:33:01.268Z,99.90
2023-04-29T01:36:02.715Z,99.90
2023-04-29T01:39:04.517Z,99.90
2023-04-29T01:41:53.302Z,99.90
2023-04-29T01:44:23.836Z,99.90
2023-04-29T01:46:53.820Z,99.90
2023-04-29T01:49:22.143Z,99.90
2023-04-29T01:51:48.706Z,99.90
2023-04-29T01:54:15.259Z,99.90
2023-04-29T01:56:41.953Z,99.90
2023-04-29T01:59:08.691Z,99.90
2023-04-29T02:01:35.289Z,99.90
2023-04-29T02:04:02.128Z,99.90
2023-04-29T02:06:29.137Z,99.90
2023-04-29T02:08:55.745Z,99.90
2023-04-29T02:11:22.270Z,99.90
2023-04-29T02:13:49.107Z,99.90
2023-04-29T02:16:16.372Z,99.90
2023-04-29T02:18:43.346Z,99.90
2023-04-29T02:21:09.877Z,99.90
2023-04-29T02:23:36.509Z,99.90
2023-04-29T02:26:06.161Z,99.90
2023-04-29T02:28:33.924Z,99.90
2023-04-29T02:31:00.715Z,99.90
2023-04-29T02:33:27.397Z,99.90
2023-04-29T02:35:54.084Z,99.90
2023-04-29T02:38:20.912Z,99.90
2023-04-29T02:40:47.605Z,99.90
2023-04-29T02:43:14.157Z,99.90
2023-04-29T02:45:40.886Z,99.90
2023-04-29T02:48:07.975Z,99.90
2023-04-29T02:50:34.534Z,99.90
2023-04-29T02:53:01.357Z,99.90
2023-04-29T02:55:27.980Z,99.90
2023-04-29T02:57:54.555Z,99.90
2023-04-29T03:00:21.691Z,99.90
2023-04-29T03:02:48.348Z,99.90
2023-04-29T03:05:15.462Z,99.90
2023-04-29T03:07:42.035Z,99.90
2023-04-29T03:10:09.206Z,99.90
2023-04-29T03:12:36.108Z,99.90
2023-04-29T03:15:02.794Z,99.90
2023-04-29T03:17:29.341Z,99.90
2023-04-29T03:19:55.868Z,99.90
2023-04-29T03:22:22.439Z,99.90
2023-04-29T03:24:49.014Z,99.90
2023-04-29T03:27:15.880Z,99.90
2023-04-29T03:29:42.410Z,99.90
2023-04-29T03:32:09.049Z,99.90
2023-04-29T03:34:35.897Z,99.90
2023-04-29T03:37:02.538Z,99.90
2023-04-29T03:39:32.283Z,99.90
2023-04-29T03:42:02.665Z,99.90
2023-04-29T03:44:29.394Z,99.90
2023-04-29T03:46:55.930Z,99.90
2023-04-29T03:49:23.572Z,99.90
2023-04-29T03:51:50.400Z,99.90
2023-04-29T03:54:17.009Z,99.90
2023-04-29T03:56:43.533Z,99.90
2023-04-29T03:59:10.084Z,99.90
2023-04-29T04:01:36.675Z,99.90
2023-04-29T04:04:03.629Z,99.90
2023-04-29T04:06:31.743Z,99.90
2023-04-29T04:08:58.303Z,99.90
2023-04-29T04:11:24.864Z,99.90
2023-04-29T04:13:51.948Z,99.90
2023-04-29T04:16:18.513Z,99.90
2023-04-29T04:18:45.211Z,99.90
2023-04-29T04:21:12.541Z,99.90
2023-04-29T04:23:42.240Z,99.90
2023-04-29T04:26:08.780Z,99.90
2023-04-29T04:28:35.414Z,99.90
2023-04-29T04:31:02.327Z,99.90
2023-04-29T04:33:28.905Z,99.90
2023-04-29T04:35:55.504Z,99.90
2023-04-29T04:38:25.194Z,99.90
2023-04-29T04:40:52.010Z,99.90
2023-04-29T04:43:18.860Z,99.90
2023-04-29T04:45:45.654Z,99.90
2023-04-29T04:48:12.300Z,99.90
2023-04-29T04:50:38.810Z,99.90
2023-04-29T04:53:05.420Z,99.90
2023-04-29T04:55:33.472Z,99.90
2023-04-29T04:58:00.174Z,99.90
2023-04-29T05:00:26.829Z,99.90
2023-04-29T05:02:53.553Z,99.90
2023-04-29T05:05:20.229Z,99.90
2023-04-29T05:07:47.196Z,99.90
2023-04-29T05:10:13.763Z,99.90
2023-04-29T05:12:40.493Z,99.90
2023-04-29T05:15:07.804Z,99.90
2023-04-29T05:17:36.256Z,99.90
2023-04-29T05:20:02.993Z,99.90
2023-04-29T05:22:29.516Z,99.90
2023-04-29T05:25:02.478Z,99.90
2023-04-29T05:27:29.348Z,99.90
2023-04-29T05:29:55.970Z,99.90
2023-04-29T05:32:22.555Z,99.90
2023-04-29T05:34:49.270Z,99.90
2023-04-29T05:37:15.801Z,99.90
2023-04-29T05:39:42.298Z,99.90
2023-04-29T05:42:08.826Z,99.90
2023-04-29T05:44:35.426Z,99.90
2023-04-29T05:47:02.207Z,99.90
2023-04-29T05:49:28.823Z,99.90
2023-04-29T05:51:55.446Z,99.90
2023-04-29T05:54:22.127Z,99.90
2023-04-29T05:56:48.702Z,99.90
2023-04-29T05:59:15.218Z,99.90
2023-04-29T06:01:41.827Z,99.90
2023-04-29T06:04:08.647Z,99.90
2023-04-29T06:06:35.437Z,99.90
2023-04-29T06:09:03.149Z,99.90
2023-04-29T06:11:30.533Z,99.90
2023-04-29T06:13:57.401Z,99.90
2023-04-29T06:16:24.086Z,99.90
2023-04-29T06:18:50.869Z,99.90
2023-04-29T06:21:17.381Z,99.90
2023-04-29T06:23:43.898Z,99.90
2023-04-29T06:26:10.460Z,99.90
2023-04-29T06:28:37.173Z,99.90
2023-04-29T06:31:03.718Z,99.90
2023-04-29T06:33:31.059Z,99.90
2023-04-29T06:35:57.586Z,99.90
2023-04-29T06:38:24.146Z,99.90
2023-04-29T06:40:50.804Z,99.90
2023-04-29T06:43:17.394Z,99.90
2023-04-29T06:45:46.798Z,99.90
2023-04-29T06:48:13.506Z,99.90
2023-04-29T06:50:48.759Z,99.90
2023-04-29T06:53:15.361Z,99.90
2023-04-29T06:55:42.118Z,99.90
2023-04-29T06:58:08.786Z,99.90
2023-04-29T07:00:35.708Z,99.90
2023-04-29T07:03:02.634Z,99.90
2023-04-29T07:05:29.177Z,99.90
2023-04-29T07:07:55.809Z,99.90
2023-04-29T07:10:22.315Z,99.90
2023-04-29T07:12:48.853Z,99.90
2023-04-29T07:15:15.447Z,99.90
2023-04-29T07:17:42.095Z,99.90
2023-04-29T07:20:09.291Z,99.90
2023-04-29T07:22:35.871Z,99.90
2023-04-29T07:25:02.405Z,99.90
2023-04-29T07:27:29.455Z,99.90
2023-04-29T07:29:56.707Z,99.90
2023-04-29T07:32:23.277Z,99.90
2023-04-29T07:34:49.827Z,99.90
2023-04-29T07:37:16.615Z,99.90
2023-04-29T07:39:43.117Z,99.90
2023-04-29T07:42:09.818Z,99.90
2023-04-29T07:44:36.526Z,99.90
2023-04-29T07:47:03.231Z,99.90
2023-04-29T07:49:30.295Z,99.90
2023-04-29T07:51:56.935Z,99.90
2023-04-29T07:54:23.666Z,99.90
2023-04-29T07:56:50.458Z,99.90
2023-04-29T07:59:17.002Z,99.90
2023-04-29T08:01:43.619Z,97.70
2023-04-29T08:04:10.439Z,83.00
2023-04-29T08:06:37.396Z,72.20
2023-04-29T08:09:04.283Z,71.50
2023-04-29T08:11:30.889Z,71.10
2023-04-29T08:13:59.214Z,68.60
2023-04-29T08:16:26.885Z,68.60
2023-04-29T08:18:54.215Z,67.90
2023-04-29T08:21:20.792Z,70.90
2023-04-29T08:23:47.333Z,73.10
2023-04-29T08:26:14.284Z,66.80
2023-04-29T08:28:40.903Z,59.00
2023-04-29T08:31:07.700Z,54.70
2023-04-29T08:33:35.225Z,49.90
2023-04-29T08:36:03.488Z,48.50
2023-04-29T08:38:30.511Z,48.30
2023-04-29T08:40:57.236Z,46.90
2023-04-29T08:43:24.296Z,45.70
2023-04-29T08:45:51.289Z,45.80
2023-04-29T08:48:18.563Z,42.60
2023-04-29T08:50:45.781Z,41.80
2023-04-29T08:53:13.796Z,41.50
2023-04-29T08:55:45.610Z,40.80
2023-04-29T08:58:13.761Z,42.00
2023-04-29T09:00:44.019Z,40.60
2023-04-29T09:03:33.739Z,40.50
2023-04-29T09:06:01.860Z,41.30
2023-04-29T09:08:29.858Z,41.30
2023-04-29T09:10:57.738Z,40.50
2023-04-29T09:13:29.990Z,39.80
2023-04-29T09:15:56.769Z,38.40
2023-04-29T09:18:46.230Z,40.40
2023-04-29T09:21:14.277Z,41.70
2023-04-29T09:23:40.917Z,40.40
2023-04-29T09:26:07.452Z,40.50
2023-04-29T09:28:34.050Z,40.10
2023-04-29T09:31:06.538Z,39.60
2023-04-29T09:33:49.527Z,42.00
2023-04-29T09:36:42.291Z,43.40
2023-04-29T09:39:11.824Z,43.90
2023-04-29T09:41:50.550Z,48.30
2023-04-29T09:44:17.132Z,46.10
2023-04-29T09:46:44.037Z,44.10
2023-04-29T09:49:28.114Z,43.40
2023-04-29T09:51:55.588Z,43.00
2023-04-29T09:54:23.892Z,47.70
2023-04-29T09:56:53.010Z,48.50
2023-04-29T09:59:20.492Z,51.30
2023-04-29T10:01:55.578Z,51.30
2023-04-29T10:04:24.256Z,53.60
2023-04-29T10:06:53.085Z,53.70
2023-04-29T10:09:20.602Z,56.30
2023-04-29T10:11:48.906Z,55.70
2023-04-29T10:14:17.090Z,57.50
2023-04-29T10:17:09.847Z,58.80
2023-04-29T10:19:47.067Z,58.50
2023-04-29T10:22:24.353Z,59.00
2023-04-29T10:24:52.414Z,59.90
2023-04-29T10:27:20.351Z,60.20
2023-04-29T10:29:48.278Z,61.30
2023-04-29T10:32:16.058Z,61.20
2023-04-29T10:34:43.544Z,61.70
2023-04-29T10:37:11.904Z,61.60
2023-04-29T10:39:49.362Z,61.50
2023-04-29T10:42:25.662Z,61.00
2023-04-29T10:45:20.313Z,61.90
2023-04-29T10:48:09.209Z,63.30
2023-04-29T10:50:49.348Z,63.40
2023-04-29T10:53:19.229Z,62.70
2023-04-29T10:55:54.439Z,63.60
2023-04-29T10:58:41.750Z,65.10
2023-04-29T11:01:13.604Z,64.90
2023-04-29T11:03:49.141Z,65.40
2023-04-29T11:06:16.302Z,67.00
2023-04-29T11:08:43.321Z,68.50
2023-04-29T11:11:10.217Z,71.20
2023-04-29T11:13:40.628Z,73.30
2023-04-29T11:16:09.315Z,75.00
2023-04-29T11:18:56.619Z,75.00
2023-04-29T11:21:23.300Z,74.00
2023-04-29T11:23:52.014Z,73.80
2023-04-29T11:26:21.753Z,72.60
2023-04-29T11:28:48.605Z,71.30
2023-04-29T11:31:15.260Z,69.60
2023-04-29T11:33:41.812Z,68.60
2023-04-29T11:36:10.935Z,68.40
2023-04-29T11:38:41.161Z,66.60
2023-04-29T11:41:08.738Z,67.90
2023-04-29T11:43:35.354Z,67.60
2023-04-29T11:46:01.975Z,66.50
2023-04-29T11:48:30.186Z,67.80
2023-04-29T11:50:59.174Z,67.80
2023-04-29T11:53:29.533Z,65.80
2023-04-29T11:55:57.120Z,67.20
2023-04-29T11:58:24.674Z,68.40
2023-04-29T12:00:54.318Z,67.60
2023-04-29T12:03:21.696Z,67.90
2023-04-29T12:05:51.763Z,69.00
2023-04-29T12:08:28.654Z,68.80
2023-04-29T12:10:58.563Z,69.00
2023-04-29T12:13:28.394Z,69.90
2023-04-29T12:15:56.130Z,70.90
2023-04-29T12:18:23.353Z,69.80
2023-04-29T12:20:55.875Z,70.70
2023-04-29T12:23:28.254Z,71.50
2023-04-29T12:26:00.305Z,72.00
2023-04-29T12:28:27.332Z,72.10
2023-04-29T12:30:54.790Z,72.20
2023-04-29T12:33:29.564Z,72.30
2023-04-29T12:35:59.363Z,74.10
2023-04-29T12:38:30.963Z,74.00
2023-04-29T12:40:59.613Z,72.40
2023-04-29T12:43:30.619Z,70.10
2023-04-29T12:46:07.981Z,69.70
2023-04-29T12:48:38.473Z,70.10
2023-04-29T12:51:05.419Z,71.50
2023-04-29T12:53:32.278Z,70.60
2023-04-29T12:55:59.051Z,71.40
2023-04-29T12:58:29.416Z,71.90
2023-04-29T13:00:56.316Z,70.20
2023-04-29T13:03:23.836Z,69.30
2023-04-29T13:05:53.422Z,69.40
2023-04-29T13:08:20.914Z,69.30
2023-04-29T13:10:47.477Z,70.00
2023-04-29T13:13:14.019Z,68.80
2023-04-29T13:15:40.553Z,69.10
2023-04-29T13:18:07.249Z,67.70
2023-04-29T13:20:40.484Z,67.70
2023-04-29T13:23:08.762Z,66.80
2023-04-29T13:25:35.316Z,67.40
2023-04-29T13:28:02.122Z,68.20
2023-04-29T13:30:28.695Z,67.60
2023-04-29T13:32:58.685Z,67.70
2023-04-29T13:35:29.830Z,67.40
2023-04-29T13:37:57.198Z,66.70
2023-04-29T13:40:27.755Z,62.80
2023-04-29T13:43:02.190Z,62.70
2023-04-29T13:45:38.914Z,62.50
2023-04-29T13:48:21.151Z,62.20
2023-04-29T13:51:14.526Z,61.50
2023-04-29T14:02:07.945Z,60.10
2023-04-29T14:04:06.183Z,59.50
2023-04-29T14:06:34.028Z,59.00
2023-04-29T14:09:03.489Z,59.10
2023-04-29T14:11:30.619Z,58.90
2023-04-29T14:13:57.153Z,59.50
2023-04-29T14:16:23.860Z,59.00
2023-04-29T14:18:50.500Z,59.00
2023-04-29T14:21:17.148Z,59.00
2023-04-29T14:23:43.661Z,58.30
2023-04-29T14:26:27.213Z,59.20
2023-04-29T14:28:59.322Z,58.80
2023-04-29T14:31:38.587Z,58.30
2023-04-29T14:34:05.844Z,57.50
2023-04-29T14:36:32.720Z,57.20
2023-04-29T14:39:00.645Z,57.50
2023-04-29T14:41:27.870Z,58.30
2023-04-29T14:43:54.455Z,58.70
2023-04-29T14:46:22.161Z,58.50
2023-04-29T14:48:49.375Z,59.50
2023-04-29T14:51:16.065Z,59.10
2023-04-29T14:53:42.959Z,60.00
2023-04-29T14:56:09.634Z,59.10
2023-04-29T14:58:36.228Z,59.20
2023-04-29T15:01:02.769Z,58.70
2023-04-29T15:03:29.411Z,58.40
2023-04-29T15:05:56.202Z,58.80
2023-04-29T15:08:22.808Z,58.80
2023-04-29T15:10:49.829Z,59.10
2023-04-29T15:13:16.437Z,59.20
2023-04-29T15:15:43.141Z,58.90
2023-04-29T15:18:09.732Z,59.20
2023-04-29T15:20:37.550Z,59.80
2023-04-29T15:23:05.637Z,58.90
2023-04-29T15:25:36.290Z,59.40
2023-04-29T15:28:03.753Z,59.60
2023-04-29T15:30:30.495Z,59.20
2023-04-29T15:32:57.222Z,59.80
2023-04-29T15:35:23.836Z,59.80
2023-04-29T15:37:50.423Z,60.70
2023-04-29T15:40:17.444Z,60.20
2023-04-29T15:42:44.227Z,60.30
2023-04-29T15:45:11.613Z,60.50
2023-04-29T15:47:38.445Z,61.10
2023-04-29T15:50:05.783Z,62.00
2023-04-29T15:52:32.428Z,62.00
2023-04-29T15:54:59.135Z,62.30
2023-04-29T15:57:25.997Z,63.10
2023-04-29T15:59:52.914Z,63.10
2023-04-29T16:02:20.338Z,62.90
2023-04-29T16:04:47.030Z,62.40
2023-04-29T16:07:13.638Z,63.20
2023-04-29T16:09:40.255Z,63.20
2023-04-29T16:12:07.939Z,63.50
2023-04-29T16:14:34.455Z,63.30
2023-04-29T16:17:01.267Z,63.70
2023-04-29T16:19:28.157Z,64.00
2023-04-29T16:21:55.336Z,64.40
2023-04-29T16:24:22.005Z,64.30
2023-04-29T16:26:49.370Z,64.10
2023-04-29T16:29:16.025Z,63.80
2023-04-29T16:31:43.451Z,64.00
2023-04-29T16:34:10.518Z,63.90
2023-04-29T16:36:37.403Z,65.00
2023-04-29T16:39:04.664Z,64.80
2023-04-29T16:41:32.124Z,65.30
2023-04-29T16:43:58.793Z,65.80
2023-04-29T16:46:25.895Z,66.10
2023-04-29T16:48:56.533Z,66.30
2023-04-29T16:51:28.996Z,67.10
2023-04-29T16:53:55.542Z,66.90
2023-04-29T16:56:22.435Z,67.00
2023-04-29T16:58:49.125Z,67.50
2023-04-29T17:01:16.210Z,68.60
2023-04-29T17:03:42.888Z,68.70
2023-04-29T17:06:09.719Z,69.40
2023-04-29T17:08:36.543Z,69.50
2023-04-29T17:11:05.048Z,69.80
2023-04-29T17:13:31.659Z,69.10
2023-04-29T17:15:58.234Z,69.10
2023-04-29T17:18:24.918Z,69.30
2023-04-29T17:20:51.496Z,70.00
2023-04-29T17:23:18.324Z,70.20
2023-04-29T17:25:45.108Z,70.00
2023-04-29T17:28:11.654Z,71.10
2023-04-29T17:30:38.249Z,70.30
2023-04-29T17:33:07.655Z,70.80
2023-04-29T17:35:34.900Z,70.50
2023-04-29T17:38:01.649Z,72.20
2023-04-29T17:40:28.227Z,72.70
2023-04-29T17:42:54.933Z,71.70
2023-04-29T17:45:21.479Z,72.50
2023-04-29T17:47:48.293Z,72.80
2023-04-29T17:50:14.924Z,72.40
2023-04-29T17:52:41.588Z,72.60
2023-04-29T17:55:08.736Z,72.00
2023-04-29T17:57:36.354Z,71.50
2023-04-29T18:00:03.228Z,71.90
2023-04-29T18:02:29.811Z,71.40
2023-04-29T18:04:56.429Z,72.50
2023-04-29T18:07:22.969Z,72.20
2023-04-29T18:09:49.540Z,72.80
2023-04-29T18:12:16.178Z,72.70
2023-04-29T18:14:42.732Z,73.50
2023-04-29T18:17:09.283Z,73.00
2023-04-29T18:19:35.863Z,72.90
2023-04-29T18:22:02.656Z,73.30
2023-04-29T18:24:29.331Z,74.20
2023-04-29T18:26:57.345Z,74.50
2023-04-29T18:29:23.999Z,74.70
2023-04-29T18:31:50.626Z,74.50
2023-04-29T18:34:17.193Z,75.30
2023-04-29T18:36:43.754Z,74.90
2023-04-29T18:39:10.308Z,74.40
2023-04-29T18:41:37.154Z,74.90
2023-04-29T18:44:03.743Z,75.00
2023-04-29T18:46:30.446Z,75.10
2023-04-29T18:48:57.163Z,74.30
2023-04-29T18:51:23.905Z,74.40
2023-04-29T18:53:50.497Z,75.30
2023-04-29T18:56:17.136Z,75.00
2023-04-29T18:58:44.822Z,76.00
2023-04-29T19:01:11.410Z,75.70
2023-04-29T19:03:38.438Z,75.70
2023-04-29T19:06:05.115Z,75.10
2023-04-29T19:08:31.708Z,75.60
2023-04-29T19:11:00.486Z,75.50
2023-04-29T19:13:27.667Z,75.30
2023-04-29T19:15:55.059Z,74.90
2023-04-29T19:18:22.964Z,74.90
2023-04-29T19:20:49.789Z,75.00
2023-04-29T19:23:16.488Z,74.70
2023-04-29T19:25:43.868Z,75.60
2023-04-29T19:28:10.403Z,74.90
2023-04-29T19:30:36.956Z,74.30
2023-04-29T19:33:04.145Z,74.60
2023-04-29T19:35:30.820Z,75.10
2023-04-29T19:37:57.357Z,75.10
2023-04-29T19:40:23.975Z,75.30
2023-04-29T19:42:50.611Z,75.00
2023-04-29T19:45:17.182Z,75.70
2023-04-29T19:47:43.929Z,75.40
2023-04-29T19:50:10.649Z,75.70
2023-04-29T19:52:37.214Z,75.70
2023-04-29T19:55:04.754Z,75.40
2023-04-29T19:57:31.886Z,75.80
2023-04-29T19:59:58.418Z,75.50
2023-04-29T20:02:25.081Z,75.60
2023-04-29T20:04:51.812Z,75.50
2023-04-29T20:07:18.547Z,76.10
2023-04-29T20:09:45.676Z,75.80
2023-04-29T20:12:12.263Z,75.40
2023-04-29T20:14:38.873Z,75.60
2023-04-29T20:17:06.150Z,75.50
2023-04-29T20:19:34.467Z,75.70
2023-04-29T20:22:01.311Z,75.90
2023-04-29T20:24:27.926Z,76.40
2023-04-29T20:26:54.446Z,76.40
2023-04-29T20:29:21.250Z,76.10
2023-04-29T20:31:48.072Z,76.20
2023-04-29T20:34:14.662Z,76.30
2023-04-29T20:36:41.297Z,76.60
2023-04-29T20:39:09.226Z,77.00
2023-04-29T20:41:35.893Z,77.20
2023-04-29T20:44:03.347Z,77.00
2023-04-29T20:46:30.063Z,77.20
2023-04-29T20:48:56.665Z,77.10
2023-04-29T20:51:23.483Z,77.60
2023-04-29T20:53:50.124Z,77.90
2023-04-29T20:56:16.642Z,78.20
2023-04-29T20:58:43.193Z,78.20
2023-04-29T21:01:09.753Z,78.40
2023-04-29T21:03:36.376Z,78.70
2023-04-29T21:06:03.000Z,79.40
2023-04-29T21:08:29.572Z,79.40
2023-04-29T21:10:56.510Z,79.40
2023-04-29T21:13:23.136Z,80.00
2023-04-29T21:15:49.752Z,80.20
2023-04-29T21:18:16.496Z,80.40
2023-04-29T21:20:43.155Z,80.30
2023-04-29T21:23:09.738Z,80.30
2023-04-29T21:25:36.311Z,80.80
2023-04-29T21:28:03.784Z,80.40
2023-04-29T21:30:30.410Z,80.50
2023-04-29T21:32:59.819Z,80.10
2023-04-29T21:35:26.573Z,80.50
2023-04-29T21:37:53.145Z,80.60
2023-04-29T21:40:19.834Z,81.50
2023-04-29T21:42:46.804Z,81.60
2023-04-29T21:45:16.023Z,81.30
2023-04-29T21:47:43.386Z,80.70
2023-04-29T21:50:10.743Z,81.10
2023-04-29T21:52:37.320Z,81.30
2023-04-29T21:55:04.613Z,81.60
2023-04-29T21:57:42.798Z,81.60
2023-04-29T22:00:20.689Z,81.70
2023-04-29T22:02:47.494Z,81.90
2023-04-29T22:05:14.131Z,81.60
2023-04-29T22:07:40.760Z,81.70
2023-04-29T22:10:07.797Z,81.60
2023-04-29T22:12:34.665Z,81.90
2023-04-29T22:15:01.197Z,82.10
2023-04-29T22:17:27.800Z,82.50
2023-04-29T22:19:54.604Z,82.20
2023-04-29T22:22:21.297Z,82.40
2023-04-29T22:24:48.065Z,82.40
2023-04-29T22:27:14.675Z,82.70
2023-04-29T22:29:41.222Z,83.20
2023-04-29T22:32:08.038Z,83.10
2023-04-29T22:34:34.739Z,83.20
2023-04-29T22:37:01.339Z,83.20
2023-04-29T22:39:27.857Z,83.40
2023-04-29T22:41:54.380Z,83.20
2023-04-29T22:44:21.020Z,83.40
2023-04-29T22:46:47.711Z,83.80
2023-04-29T22:49:14.355Z,84.10
2023-04-29T22:51:41.360Z,83.60
2023-04-29T22:54:08.479Z,84.30
2023-04-29T22:56:35.027Z,84.70
2023-04-29T22:59:01.577Z,84.40
2023-04-29T23:01:28.122Z,84.40
2023-04-29T23:03:56.032Z,84.60
2023-04-29T23:06:22.786Z,84.80
2023-04-29T23:08:51.655Z,85.10
2023-04-29T23:11:18.166Z,84.80
2023-04-29T23:13:44.816Z,84.90
2023-04-29T23:16:11.458Z,85.40
2023-04-29T23:18:38.064Z,85.80
2023-04-29T23:21:04.876Z,86.00
2023-04-29T23:23:31.475Z,85.60
2023-04-29T23:25:57.985Z,85.70
2023-04-29T23:28:24.711Z,86.00
2023-04-29T23:30:51.474Z,85.90
2023-04-29T23:33:18.009Z,85.70
2023-04-29T23:35:51.967Z,86.60
2023-04-29T23:38:19.097Z,86.70
2023-04-29T23:40:46.476Z,86.80
2023-04-29T23:43:14.784Z,87.30
2023-04-29T23:45:43.925Z,87.60
2023-04-29T23:48:10.630Z,87.60
2023-04-29T23:50:37.153Z,88.40
2023-04-29T23:53:03.900Z,88.40
2023-04-29T23:55:31.419Z,88.50
2023-04-29T23:57:57.963Z,88.60
